Time;durP1;ratioP1;P1;durP2;ratioP2;P2;SDS_P1;SDS_P2;PMS_P1;PMS_P2;Temp;Humidity;BMP_temperature;BMP_pressure;BME280_temperature;BME280_humidity;BME280_pressure;Samples;Min_cycle;Max_cycle;Signal;HPM_P1;HPM_P2
2022/12/29 00:01:29;;;;;;;20.23;18.92;;;12.70;99.90;;;;;;4937997;28;20039;-91
2022/12/29 00:03:55;;;;;;;20.38;18.85;;;12.70;99.90;;;;;;4922890;29;20396;-92
2022/12/29 00:06:21;;;;;;;20.50;19.27;;;12.60;99.90;;;;;;4939022;29;20027;-92
2022/12/29 00:08:47;;;;;;;22.23;20.83;;;12.60;99.90;;;;;;4935379;29;20043;-91
2022/12/29 00:11:18;;;;;;;18.88;17.55;;;12.50;99.90;;;;;;4943346;29;20058;-91
2022/12/29 00:16:29;;;;;;;19.80;18.58;;;12.40;99.90;;;;;;4924570;28;20504;-91
2022/12/29 00:18:55;;;;;;;20.23;19.13;;;12.40;99.90;;;;;;4918821;29;20050;-92
2022/12/29 00:35:13;;;;;;;20.98;19.65;;;12.30;99.90;;;;;;4936474;29;20046;-93
2022/12/29 00:45:57;;;;;;;20.88;19.73;;;12.30;99.90;;;;;;4951719;28;20051;-92
2022/12/29 00:51:08;;;;;;;20.20;18.90;;;12.30;99.90;;;;;;4940550;29;20495;-92
2022/12/29 00:53:34;;;;;;;20.38;18.98;;;12.30;99.90;;;;;;4934224;29;20050;-92
2022/12/29 00:56:00;;;;;;;20.65;18.77;;;12.20;99.90;;;;;;4935111;29;20492;-93
2022/12/29 00:58:28;;;;;;;20.55;19.05;;;12.30;99.90;;;;;;4937614;29;20401;-92
2022/12/29 01:01:02;;;;;;;20.45;19.10;;;12.30;99.90;;;;;;4904223;29;20050;-92
2022/12/29 01:03:28;;;;;;;21.08;19.50;;;12.30;99.90;;;;;;4919592;29;20035;-91
2022/12/29 01:05:54;;;;;;;22.88;21.38;;;12.30;99.90;;;;;;4919487;29;20040;-92
2022/12/29 01:08:20;;;;;;;21.48;20.08;;;12.30;99.90;;;;;;4935868;29;20493;-92
2022/12/29 01:10:46;;;;;;;21.70;19.63;;;12.30;99.90;;;;;;4919572;29;20043;-92
2022/12/29 01:13:12;;;;;;;21.10;19.67;;;12.30;99.90;;;;;;4919484;29;20028;-91
2022/12/29 01:15:38;;;;;;;23.27;21.60;;;12.30;99.90;;;;;;4922107;28;20472;-94
2022/12/29 01:18:04;;;;;;;21.40;19.73;;;12.20;99.90;;;;;;4955174;29;20054;-93
2022/12/29 01:20:30;;;;;;;20.50;18.55;;;12.30;99.90;;;;;;4955025;28;20031;-93
2022/12/29 01:22:56;;;;;;;22.50;20.70;;;12.30;99.90;;;;;;4952934;29;20035;-92
2022/12/29 01:25:23;;;;;;;22.70;20.80;;;12.30;99.90;;;;;;4950804;29;20032;-93
2022/12/29 01:27:49;;;;;;;23.17;20.98;;;12.30;99.90;;;;;;4938628;29;20046;-92
2022/12/29 01:30:15;;;;;;;22.67;20.65;;;12.40;99.90;;;;;;4937233;28;20024;-90
2022/12/29 01:32:41;;;;;;;22.83;20.88;;;12.30;99.90;;;;;;4921169;29;20047;-92
2022/12/29 01:35:07;;;;;;;23.98;21.83;;;12.40;99.90;;;;;;4920889;29;20470;-94
2022/12/29 01:37:33;;;;;;;19.60;18.13;;;12.30;99.90;;;;;;4933134;29;20039;-91
2022/12/29 01:39:59;;;;;;;24.27;18.75;;;12.30;99.90;;;;;;4940324;29;20034;-93
2022/12/29 01:42:26;;;;;;;19.85;17.75;;;12.30;99.90;;;;;;4943097;29;20042;-93
2022/12/29 01:44:53;;;;;;;26.33;17.77;;;12.30;99.90;;;;;;4924076;29;20043;-91
2022/12/29 01:47:38;;;;;;;22.23;20.38;;;12.40;99.90;;;;;;4943611;28;20035;-91
2022/12/29 01:50:08;;;;;;;22.75;20.73;;;12.30;99.90;;;;;;4940942;29;20039;-91
2022/12/29 01:52:35;;;;;;;21.73;19.58;;;12.30;99.90;;;;;;4925793;29;20028;-93
2022/12/29 01:55:01;;;;;;;21.83;19.75;;;12.30;99.90;;;;;;4929363;29;20028;-91
2022/12/29 01:57:33;;;;;;;25.45;23.20;;;12.30;99.90;;;;;;4940589;29;20042;-91
2022/12/29 02:00:08;;;;;;;20.98;19.10;;;12.30;99.90;;;;;;4929479;29;20052;-92
2022/12/29 02:02:34;;;;;;;22.90;18.55;;;12.30;99.90;;;;;;4942170;29;20035;-91
2022/12/29 02:05:04;;;;;;;19.55;18.13;;;12.30;99.90;;;;;;4931731;29;20031;-93
2022/12/29 02:07:31;;;;;;;21.30;19.80;;;12.10;99.90;;;;;;4930007;29;20758;-93
2022/12/29 02:09:57;;;;;;;19.63;18.02;;;12.00;99.90;;;;;;4944185;29;20404;-93
2022/12/29 02:12:23;;;;;;;21.55;17.90;;;12.00;99.90;;;;;;4949753;29;20034;-92
2022/12/29 02:14:51;;;;;;;20.85;18.38;;;11.90;99.90;;;;;;4939898;29;20044;-92
2022/12/29 02:17:26;;;;;;;19.25;17.60;;;11.90;99.90;;;;;;4964688;28;20051;-94
2022/12/29 02:20:20;;;;;;;22.23;18.08;;;11.90;99.90;;;;;;4929867;29;20047;-94
2022/12/29 02:23:17;;;;;;;22.55;20.23;;;12.00;99.90;;;;;;4957022;29;20028;-92
2022/12/29 02:26:03;;;;;;;21.80;19.92;;;12.00;99.90;;;;;;4945572;29;20034;-92
2022/12/29 02:28:41;;;;;;;21.05;19.15;;;11.90;99.90;;;;;;4948496;29;20039;-93
2022/12/29 02:31:10;;;;;;;23.30;20.75;;;11.90;99.90;;;;;;4939896;28;20036;-93
2022/12/29 02:33:53;;;;;;;20.77;18.88;;;11.90;99.90;;;;;;4965478;29;20035;-93
2022/12/29 02:36:31;;;;;;;21.77;19.92;;;11.90;99.90;;;;;;4941813;29;20039;-93
2022/12/29 02:39:15;;;;;;;21.58;19.50;;;11.90;99.90;;;;;;4963213;29;20038;-90
2022/12/29 02:41:58;;;;;;;26.08;19.67;;;11.80;99.90;;;;;;4964975;29;20035;-93
2022/12/29 02:44:30;;;;;;;21.50;19.42;;;11.90;99.90;;;;;;4947159;29;20027;-93
2022/12/29 02:47:11;;;;;;;20.40;18.33;;;11.90;99.90;;;;;;4953378;28;20036;-93
2022/12/29 02:49:51;;;;;;;24.77;17.80;;;11.90;99.90;;;;;;4908079;29;20038;-92
2022/12/29 02:52:19;;;;;;;20.17;18.00;;;11.90;99.90;;;;;;4942316;29;20512;-90
2022/12/29 02:54:47;;;;;;;20.38;17.88;;;11.90;99.90;;;;;;4927593;29;20051;-94
2022/12/29 02:57:22;;;;;;;22.33;19.15;;;11.80;99.90;;;;;;4929159;29;20043;-93
2022/12/29 03:00:11;;;;;;;25.23;18.17;;;11.90;99.90;;;;;;4961803;29;20054;-95
2022/12/29 03:02:53;;;;;;;28.20;20.05;;;11.80;99.90;;;;;;4945510;29;20124;-93
2022/12/29 03:05:46;;;;;;;21.92;19.75;;;11.90;99.90;;;;;;4959222;29;20034;-92
2022/12/29 03:08:18;;;;;;;25.73;19.58;;;11.90;99.90;;;;;;4959296;29;20045;-94
2022/12/29 03:11:02;;;;;;;26.40;20.40;;;11.90;99.90;;;;;;4963724;29;20026;-92
2022/12/29 03:17:10;;;;;;;24.73;20.42;;;11.90;99.90;;;;;;4962436;28;20042;-93
2022/12/29 03:19:46;;;;;;;22.63;20.33;;;11.90;99.90;;;;;;4896670;29;20036;-94
2022/12/29 03:22:31;;;;;;;27.98;20.58;;;11.80;99.90;;;;;;4903459;29;20041;-94
2022/12/29 03:25:10;;;;;;;27.92;21.95;;;11.90;99.90;;;;;;4869060;29;20056;-94
2022/12/29 03:28:03;;;;;;;30.05;20.15;;;11.90;99.90;;;;;;4889898;29;20048;-94
2022/12/29 03:30:29;;;;;;;29.23;21.77;;;11.80;99.90;;;;;;4890494;29;20040;-93
2022/12/29 03:32:57;;;;;;;25.95;19.50;;;11.90;99.90;;;;;;4889788;29;20041;-92
2022/12/29 03:35:25;;;;;;;30.33;20.85;;;11.80;99.90;;;;;;4875948;29;20044;-92
2022/12/29 03:38:14;;;;;;;27.60;21.45;;;11.80;99.90;;;;;;4888756;29;20055;-92
2022/12/29 03:40:42;;;;;;;24.58;21.10;;;11.80;99.90;;;;;;4890394;29;20522;-93
2022/12/29 03:43:08;;;;;;;28.73;22.50;;;11.80;99.90;;;;;;4877836;29;20043;-92
2022/12/29 03:45:34;;;;;;;34.15;22.27;;;11.70;99.90;;;;;;4897934;29;20025;-93
2022/12/29 03:48:00;;;;;;;26.27;21.15;;;11.80;99.90;;;;;;4895599;29;20047;-91
2022/12/29 03:50:26;;;;;;;29.55;22.65;;;11.70;99.90;;;;;;4897951;29;20067;-92
2022/12/29 03:52:52;;;;;;;28.30;21.63;;;11.70;99.90;;;;;;4899323;29;20543;-93
2022/12/29 03:55:18;;;;;;;25.92;22.48;;;11.70;99.90;;;;;;4923611;29;20043;-93
2022/12/29 03:57:44;;;;;;;29.42;22.38;;;11.70;99.90;;;;;;4935419;29;20550;-93
2022/12/29 04:00:11;;;;;;;31.23;21.38;;;11.70;99.90;;;;;;4938274;28;20058;-93
2022/12/29 04:02:37;;;;;;;29.20;21.48;;;11.80;99.90;;;;;;4922843;29;20058;-93
2022/12/29 04:05:04;;;;;;;28.42;19.92;;;11.70;99.90;;;;;;4950560;29;20398;-93
2022/12/29 04:07:30;;;;;;;33.42;18.77;;;11.70;99.90;;;;;;4937363;29;20393;-93
2022/12/29 04:09:56;;;;;;;32.38;19.63;;;11.70;99.90;;;;;;4954973;29;20032;-92
2022/12/29 04:12:22;;;;;;;39.08;19.23;;;11.70;99.90;;;;;;4954830;29;20035;-92
2022/12/29 04:14:48;;;;;;;33.45;20.08;;;11.70;99.90;;;;;;4953646;29;20042;-92
2022/12/29 04:17:14;;;;;;;37.38;21.10;;;11.70;99.90;;;;;;4921026;29;20068;-91
2022/12/29 04:19:40;;;;;;;28.50;20.10;;;11.70;99.90;;;;;;4926452;29;20035;-93
2022/12/29 04:22:06;;;;;;;31.08;20.13;;;11.80;99.90;;;;;;4923727;29;20094;-94
2022/12/29 04:24:33;;;;;;;36.30;21.92;;;11.80;99.90;;;;;;4923508;29;20393;-94
2022/12/29 04:26:59;;;;;;;28.80;19.48;;;11.80;99.90;;;;;;4951496;29;20039;-92
2022/12/29 04:29:25;;;;;;;31.15;21.50;;;11.80;99.90;;;;;;4930281;29;20048;-94
2022/12/29 04:31:51;;;;;;;31.83;19.88;;;11.80;99.90;;;;;;4951911;28;20074;-92
2022/12/29 04:34:17;;;;;;;25.27;19.85;;;11.80;99.90;;;;;;4941069;29;20031;-92
2022/12/29 04:36:43;;;;;;;29.48;21.63;;;11.90;99.90;;;;;;4923398;29;20039;-93
2022/12/29 04:39:09;;;;;;;35.70;22.85;;;11.90;99.90;;;;;;4926652;29;20050;-92
2022/12/29 04:41:35;;;;;;;29.50;21.42;;;11.90;99.90;;;;;;4952927;29;20043;-92
2022/12/29 04:44:01;;;;;;;27.30;19.85;;;11.80;99.90;;;;;;4949840;29;20042;-94
2022/12/29 04:46:27;;;;;;;34.90;20.40;;;11.80;99.90;;;;;;4936181;28;20032;-93
2022/12/29 04:48:53;;;;;;;36.85;20.42;;;11.70;99.90;;;;;;4929682;29;20072;-92
2022/12/29 04:51:20;;;;;;;23.40;19.38;;;11.80;99.90;;;;;;4922063;29;20051;-92
2022/12/29 04:53:46;;;;;;;29.05;19.33;;;11.80;99.90;;;;;;4941240;29;20040;-92
2022/12/29 04:56:12;;;;;;;29.63;19.95;;;11.70;99.90;;;;;;4944833;29;20039;-92
2022/12/29 04:58:38;;;;;;;26.98;22.67;;;11.80;99.90;;;;;;4942850;29;20051;-91
2022/12/29 05:01:04;;;;;;;29.02;20.60;;;11.80;99.90;;;;;;4925444;29;20048;-88
2022/12/29 05:03:30;;;;;;;39.20;19.65;;;11.70;99.90;;;;;;4931925;29;20047;-89
2022/12/29 05:05:56;;;;;;;31.42;18.67;;;11.70;99.90;;;;;;4947265;28;20035;-86
2022/12/29 05:08:22;;;;;;;29.73;19.50;;;11.70;99.90;;;;;;4913556;29;20112;-87
2022/12/29 05:10:50;;;;;;;24.98;20.02;;;11.70;99.90;;;;;;4920427;29;20039;-87
2022/12/29 05:13:17;;;;;;;26.58;19.38;;;11.70;99.90;;;;;;4940848;29;20046;-86
2022/12/29 05:15:50;;;;;;;30.35;17.90;;;11.60;99.90;;;;;;4953795;28;20039;-87
2022/12/29 05:18:16;;;;;;;21.55;19.20;;;11.70;99.90;;;;;;4922682;29;20048;-86
2022/12/29 05:20:43;;;;;;;19.52;15.88;;;11.60;99.90;;;;;;4961586;28;20039;-86
2022/12/29 05:23:09;;;;;;;27.50;16.50;;;11.60;99.90;;;;;;4921292;29;20040;-85
2022/12/29 05:25:35;;;;;;;20.83;16.58;;;11.60;99.90;;;;;;4923124;29;20492;-86
2022/12/29 05:28:01;;;;;;;22.38;15.80;;;11.60;99.90;;;;;;4957544;29;20039;-86
2022/12/29 05:30:27;;;;;;;24.58;16.30;;;11.60;99.90;;;;;;4938336;29;20039;-85
2022/12/29 05:32:53;;;;;;;21.80;15.45;;;11.60;99.90;;;;;;4937358;29;20038;-85
2022/12/29 05:35:19;;;;;;;19.05;16.05;;;11.50;99.90;;;;;;4941101;29;20040;-86
2022/12/29 05:37:45;;;;;;;24.67;16.38;;;11.50;99.90;;;;;;4935535;29;20050;-85
2022/12/29 05:40:11;;;;;;;29.67;18.52;;;11.50;99.90;;;;;;4952831;29;20035;-85
2022/12/29 05:42:37;;;;;;;31.75;17.58;;;11.50;99.90;;;;;;4938473;29;20047;-86
2022/12/29 05:45:06;;;;;;;27.15;16.98;;;11.50;99.90;;;;;;4920404;28;20036;-91
2022/12/29 05:47:33;;;;;;;25.92;17.10;;;11.50;99.90;;;;;;4929842;29;20034;-91
2022/12/29 05:49:59;;;;;;;27.38;16.27;;;11.40;99.90;;;;;;4954489;29;20031;-87
2022/12/29 05:52:25;;;;;;;26.73;17.30;;;11.50;99.90;;;;;;4948880;29;20038;-87
2022/12/29 05:54:51;;;;;;;20.92;15.38;;;11.40;99.90;;;;;;4936378;29;20039;-88
2022/12/29 05:57:17;;;;;;;20.23;17.00;;;11.40;99.90;;;;;;4936741;29;20043;-88
2022/12/29 05:59:43;;;;;;;24.60;17.10;;;11.40;99.90;;;;;;4936893;29;20051;-89
2022/12/29 06:02:10;;;;;;;18.08;14.68;;;11.40;99.90;;;;;;4954157;28;20488;-90
2022/12/29 06:04:36;;;;;;;23.05;15.07;;;11.40;99.90;;;;;;4921094;29;20046;-92
2022/12/29 06:07:02;;;;;;;19.27;16.55;;;11.40;99.90;;;;;;4927818;29;20027;-91
2022/12/29 06:09:28;;;;;;;23.85;15.90;;;11.40;99.90;;;;;;4937105;29;20038;-89
2022/12/29 06:11:54;;;;;;;21.63;16.17;;;11.40;99.90;;;;;;4920642;29;20028;-87
2022/12/29 06:14:20;;;;;;;16.98;15.30;;;11.40;99.90;;;;;;4936098;29;20031;-86
2022/12/29 06:16:46;;;;;;;22.98;16.13;;;11.40;99.90;;;;;;4953514;28;20039;-87
2022/12/29 06:19:12;;;;;;;21.08;17.27;;;11.30;99.90;;;;;;4940125;28;20116;-87
2022/12/29 06:21:38;;;;;;;28.85;18.45;;;11.40;99.90;;;;;;4939162;29;20520;-86
2022/12/29 06:24:05;;;;;;;22.02;17.80;;;11.40;99.90;;;;;;4955356;28;20039;-91
2022/12/29 06:26:31;;;;;;;18.98;16.92;;;11.30;99.90;;;;;;4951344;29;20027;-92
2022/12/29 06:28:57;;;;;;;26.33;17.67;;;11.30;99.90;;;;;;4925721;29;20031;-92
2022/12/29 06:31:23;;;;;;;20.48;17.50;;;11.30;99.90;;;;;;4948346;28;20035;-90
2022/12/29 06:33:49;;;;;;;24.92;15.90;;;11.30;99.90;;;;;;4922087;29;20043;-93
2022/12/29 06:36:15;;;;;;;24.50;18.45;;;11.40;99.90;;;;;;4931337;29;20043;-89
2022/12/29 06:38:42;;;;;;;21.15;16.77;;;11.40;99.90;;;;;;4937774;29;20050;-87
2022/12/29 06:41:08;;;;;;;27.40;17.98;;;11.40;99.90;;;;;;4920286;29;20036;-86
2022/12/29 06:43:35;;;;;;;24.98;16.60;;;11.30;99.90;;;;;;4949911;29;20038;-86
2022/12/29 06:46:01;;;;;;;29.10;16.23;;;11.30;99.90;;;;;;4939231;28;20064;-86
2022/12/29 06:48:27;;;;;;;24.65;16.95;;;11.30;99.90;;;;;;4957103;29;20031;-87
2022/12/29 06:50:53;;;;;;;23.90;17.15;;;11.30;99.90;;;;;;4944196;29;20039;-89
2022/12/29 06:53:20;;;;;;;26.05;17.38;;;11.40;99.90;;;;;;4937161;29;20043;-90
2022/12/29 06:55:46;;;;;;;26.52;18.85;;;11.40;99.90;;;;;;4906395;29;20478;-90
2022/12/29 06:58:12;;;;;;;21.05;18.38;;;11.30;99.90;;;;;;4923159;29;20062;-91
2022/12/29 07:00:38;;;;;;;23.35;16.30;;;11.30;99.90;;;;;;4945461;28;20386;-90
2022/12/29 07:03:04;;;;;;;23.05;17.83;;;11.30;99.90;;;;;;4944800;29;20024;-90
2022/12/29 07:05:32;;;;;;;28.70;17.55;;;11.30;99.90;;;;;;4946232;29;20032;-90
2022/12/29 07:07:58;;;;;;;24.55;17.77;;;11.30;99.90;;;;;;4945445;29;20480;-85
2022/12/29 07:10:26;;;;;;;21.65;17.55;;;11.30;99.90;;;;;;4940600;29;20035;-86
2022/12/29 07:12:52;;;;;;;25.10;19.85;;;11.30;99.90;;;;;;4939133;29;20046;-85
2022/12/29 07:15:18;;;;;;;22.77;19.95;;;11.30;99.90;;;;;;4923586;28;20047;-88
2022/12/29 07:17:44;;;;;;;27.48;18.70;;;11.30;99.90;;;;;;4941678;29;20094;-86
2022/12/29 07:20:10;;;;;;;26.02;19.02;;;11.30;99.90;;;;;;4949586;28;20033;-91
2022/12/29 07:22:36;;;;;;;34.97;25.25;;;11.20;99.90;;;;;;4929159;29;20043;-90
2022/12/29 07:25:03;;;;;;;26.08;20.63;;;11.20;99.90;;;;;;4928835;29;20036;-91
2022/12/29 07:27:29;;;;;;;51.42;31.23;;;11.20;99.90;;;;;;4941740;29;20023;-92
2022/12/29 07:29:55;;;;;;;30.00;22.73;;;11.30;99.90;;;;;;4948332;29;20047;-92
2022/12/29 07:32:21;;;;;;;30.15;27.05;;;11.30;99.90;;;;;;4946381;28;20063;-92
2022/12/29 07:34:47;;;;;;;30.95;23.30;;;11.40;99.90;;;;;;4931963;29;20039;-93
2022/12/29 07:37:15;;;;;;;29.10;26.08;;;11.40;99.90;;;;;;4957343;29;20042;-90
2022/12/29 07:39:41;;;;;;;27.25;19.40;;;11.40;99.90;;;;;;4944957;29;20051;-91
2022/12/29 07:42:07;;;;;;;22.13;16.77;;;11.40;99.90;;;;;;4947438;29;20030;-93
2022/12/29 07:44:33;;;;;;;27.13;17.77;;;11.40;99.90;;;;;;4940259;29;20050;-91
2022/12/29 07:46:59;;;;;;;26.05;16.88;;;11.30;99.90;;;;;;4954650;28;20043;-93
2022/12/29 07:49:25;;;;;;;27.65;16.55;;;11.30;99.90;;;;;;4959155;29;20046;-93
2022/12/29 07:51:52;;;;;;;27.25;17.13;;;11.20;99.90;;;;;;4922961;29;20514;-91
2022/12/29 07:54:18;;;;;;;26.70;18.38;;;11.30;99.90;;;;;;4925720;29;20358;-91
2022/12/29 07:56:44;;;;;;;28.20;17.80;;;11.30;99.90;;;;;;4960120;29;20046;-90
2022/12/29 07:59:11;;;;;;;21.30;16.58;;;11.30;99.90;;;;;;4924413;29;20062;-91
2022/12/29 08:01:38;;;;;;;28.73;17.35;;;11.30;99.90;;;;;;4939329;28;20035;-89
2022/12/29 08:04:04;;;;;;;26.98;19.67;;;11.30;99.90;;;;;;4939520;29;20027;-90
2022/12/29 08:06:30;;;;;;;40.45;22.27;;;11.30;99.90;;;;;;4922717;29;20043;-89
2022/12/29 08:08:57;;;;;;;31.77;22.27;;;11.30;99.90;;;;;;4956651;29;20039;-92
2022/12/29 08:11:23;;;;;;;37.72;24.00;;;11.40;99.90;;;;;;4928853;29;20042;-93
2022/12/29 08:13:49;;;;;;;31.17;19.77;;;11.30;99.90;;;;;;4912209;29;20051;-93
2022/12/29 08:16:15;;;;;;;31.50;21.83;;;11.40;99.90;;;;;;4937296;28;20058;-89
2022/12/29 08:18:41;;;;;;;33.47;21.15;;;11.40;99.90;;;;;;4954149;29;20481;-85
2022/12/29 08:21:07;;;;;;;45.15;27.40;;;11.40;99.90;;;;;;4954721;28;20034;-86
2022/12/29 08:23:33;;;;;;;61.20;35.92;;;11.40;99.90;;;;;;4938618;29;20476;-86
2022/12/29 08:26:00;;;;;;;46.65;27.73;;;11.50;99.90;;;;;;4936991;29;20023;-86
2022/12/29 08:28:27;;;;;;;68.90;33.53;;;11.40;99.90;;;;;;4945444;29;20031;-87
2022/12/29 08:30:53;;;;;;;59.72;28.42;;;11.40;99.90;;;;;;4953132;28;20035;-85
2022/12/29 08:33:19;;;;;;;47.47;26.83;;;11.40;99.90;;;;;;4955228;29;20035;-91
2022/12/29 08:35:45;;;;;;;126.30;56.35;;;11.50;99.90;;;;;;4922351;29;20051;-90
2022/12/29 08:38:11;;;;;;;79.32;35.90;;;11.60;99.90;;;;;;4952663;29;20047;-91
2022/12/29 08:40:37;;;;;;;122.53;48.33;;;11.70;99.90;;;;;;4937635;29;20039;-85
2022/12/29 08:43:03;;;;;;;61.85;30.25;;;11.70;99.90;;;;;;4928762;29;20091;-88
2022/12/29 08:45:29;;;;;;;47.95;26.63;;;11.70;99.90;;;;;;4918467;28;20032;-87
2022/12/29 08:47:55;;;;;;;47.35;24.60;;;11.80;99.90;;;;;;4937452;29;20042;-87
2022/12/29 08:50:21;;;;;;;32.65;20.33;;;11.60;99.90;;;;;;4927264;29;20513;-89
2022/12/29 08:52:48;;;;;;;38.47;23.40;;;11.50;99.90;;;;;;4955728;29;20042;-90
2022/12/29 08:55:14;;;;;;;28.88;23.58;;;11.50;99.90;;;;;;4942820;29;20035;-94
2022/12/29 08:57:40;;;;;;;31.17;22.63;;;11.50;99.90;;;;;;4957432;29;20027;-86
2022/12/29 09:00:07;;;;;;;31.75;22.50;;;11.60;99.90;;;;;;4951051;28;20066;-89
2022/12/29 09:02:33;;;;;;;30.80;23.27;;;11.60;99.90;;;;;;4941974;29;20036;-87
2022/12/29 09:05:00;;;;;;;36.03;23.50;;;11.60;99.90;;;;;;4920745;29;20055;-84
2022/12/29 09:07:26;;;;;;;32.55;25.33;;;11.60;99.90;;;;;;4921786;29;20035;-84
2022/12/29 09:09:52;;;;;;;38.88;26.88;;;11.60;99.90;;;;;;4917690;29;20417;-84
2022/12/29 09:12:18;;;;;;;42.22;28.70;;;11.70;99.90;;;;;;4931144;29;20054;-87
2022/12/29 09:14:46;;;;;;;40.75;27.05;;;11.80;99.90;;;;;;4942051;29;20047;-88
2022/12/29 09:19:56;;;;;;;38.72;26.08;;;11.70;99.90;;;;;;4949293;29;20051;-89
2022/12/29 09:22:22;;;;;;;40.10;28.48;;;11.70;99.90;;;;;;4925209;29;20042;-92
2022/12/29 09:24:48;;;;;;;38.95;24.08;;;11.70;99.90;;;;;;4936951;29;20039;-90
2022/12/29 09:27:14;;;;;;;42.28;29.00;;;11.70;99.90;;;;;;4946126;29;20043;-89
2022/12/29 09:29:41;;;;;;;51.53;30.98;;;11.80;99.90;;;;;;4953338;29;20043;-89
2022/12/29 09:32:07;;;;;;;38.25;28.63;;;11.80;99.90;;;;;;4952296;28;20039;-95
2022/12/29 09:34:33;;;;;;;48.55;33.13;;;11.80;99.90;;;;;;4941198;29;20030;-90
2022/12/29 09:36:59;;;;;;;43.60;30.95;;;11.90;99.90;;;;;;4939182;29;20035;-90
2022/12/29 09:39:25;;;;;;;37.05;29.17;;;12.10;99.90;;;;;;4937093;29;20077;-88
2022/12/29 09:41:58;;;;;;;33.97;28.85;;;12.00;99.90;;;;;;4938957;29;20043;-92
2022/12/29 09:44:30;;;;;;;35.28;29.60;;;12.00;99.90;;;;;;4919390;29;20039;-89
2022/12/29 09:46:56;;;;;;;41.42;27.92;;;12.00;99.90;;;;;;4941551;28;20031;-90
2022/12/29 09:49:39;;;;;;;48.85;33.10;;;12.00;99.90;;;;;;4923334;29;20039;-92
2022/12/29 09:52:11;;;;;;;40.50;26.73;;;12.00;99.90;;;;;;4947182;29;20036;-92
2022/12/29 09:54:56;;;;;;;31.85;21.52;;;12.00;99.90;;;;;;4931075;29;20384;-89
2022/12/29 09:57:38;;;;;;;31.10;17.67;;;12.00;99.90;;;;;;4921277;29;20042;-91
2022/12/29 10:00:16;;;;;;;30.08;18.23;;;12.00;99.90;;;;;;4916381;28;20412;-88
2022/12/29 10:02:57;;;;;;;30.73;19.63;;;12.00;99.90;;;;;;4940248;29;20024;-90
2022/12/29 10:05:33;;;;;;;28.35;18.45;;;12.00;99.90;;;;;;4923954;29;20397;-86
2022/12/29 10:08:17;;;;;;;24.65;17.42;;;12.00;99.90;;;;;;4941915;29;20038;-87
2022/12/29 10:11:07;;;;;;;30.27;19.38;;;12.00;99.90;;;;;;4938148;29;20396;-89
2022/12/29 10:13:40;;;;;;;23.08;17.25;;;12.10;99.90;;;;;;4942507;29;20043;-90
2022/12/29 10:16:16;;;;;;;27.23;18.23;;;12.20;99.90;;;;;;4925357;28;20378;-86
2022/12/29 10:19:17;;;;;;;33.63;19.00;;;12.10;99.90;;;;;;4929104;29;20050;-88
2022/12/29 10:22:14;;;;;;;26.73;17.98;;;12.10;99.90;;;;;;4878546;29;20124;-87
2022/12/29 10:24:40;;;;;;;23.80;17.60;;;12.10;99.90;;;;;;4814205;29;20054;-87
2022/12/29 10:27:16;;;;;;;28.67;18.17;;;12.10;99.90;;;;;;4810090;29;20050;-90
2022/12/29 10:29:54;;;;;;;28.90;19.42;;;12.10;99.90;;;;;;4814378;29;20503;-95
2022/12/29 10:32:29;;;;;;;26.48;18.73;;;12.10;99.90;;;;;;4822805;29;20034;-93
2022/12/29 10:34:58;;;;;;;33.92;17.20;;;12.10;99.90;;;;;;4809805;29;20555;-90
2022/12/29 10:37:43;;;;;;;26.73;17.08;;;12.10;99.90;;;;;;4819780;29;20038;-91
2022/12/29 10:40:42;;;;;;;20.17;16.33;;;12.10;99.90;;;;;;4831069;29;20409;-91
2022/12/29 10:43:29;;;;;;;27.48;17.92;;;12.10;99.90;;;;;;4818361;29;20562;-88
2022/12/29 10:46:08;;;;;;;28.65;15.75;;;12.10;99.90;;;;;;4829382;29;20049;-90
2022/12/29 10:48:34;;;;;;;25.50;17.10;;;12.20;99.90;;;;;;4791075;29;20046;-89
2022/12/29 10:51:05;;;;;;;21.33;17.77;;;12.20;99.90;;;;;;4805769;29;20400;-88
2022/12/29 10:53:43;;;;;;;24.30;19.45;;;12.40;99.90;;;;;;4805485;29;20039;-88
2022/12/29 10:56:16;;;;;;;23.40;20.92;;;12.60;99.90;;;;;;4808371;29;20042;-87
2022/12/29 10:58:42;;;;;;;25.33;21.42;;;12.70;99.90;;;;;;4836878;29;20411;-88
2022/12/29 11:01:08;;;;;;;26.85;24.05;;;12.70;99.90;;;;;;4885453;29;20046;-88
2022/12/29 11:03:46;;;;;;;29.50;26.48;;;12.70;99.90;;;;;;4938029;29;20027;-88
2022/12/29 11:06:24;;;;;;;42.45;30.83;;;12.80;99.90;;;;;;4943276;29;20501;-87
2022/12/29 11:08:57;;;;;;;37.45;32.35;;;12.80;99.90;;;;;;4917048;29;20070;-87
2022/12/29 11:11:32;;;;;;;30.48;27.85;;;12.80;99.90;;;;;;4938869;29;20050;-87
2022/12/29 11:14:08;;;;;;;40.05;33.42;;;12.90;99.90;;;;;;4937530;29;20043;-87
2022/12/29 11:16:34;;;;;;;25.35;22.77;;;13.00;99.90;;;;;;4941938;28;20039;-88
2022/12/29 11:19:01;;;;;;;30.80;20.48;;;13.10;99.90;;;;;;4945191;29;20693;-87
2022/12/29 11:21:31;;;;;;;34.38;22.40;;;13.10;99.90;;;;;;4935385;29;20024;-88
2022/12/29 11:24:02;;;;;;;24.73;20.42;;;13.30;99.90;;;;;;4939608;29;20043;-87
2022/12/29 11:26:29;;;;;;;21.92;19.92;;;13.40;99.90;;;;;;4919842;29;20034;-85
2022/12/29 11:29:07;;;;;;;29.27;19.92;;;13.40;99.90;;;;;;4940594;29;20034;-86
2022/12/29 11:31:44;;;;;;;23.75;16.98;;;13.40;99.90;;;;;;4953324;28;20031;-86
2022/12/29 11:34:21;;;;;;;24.88;18.20;;;13.40;99.90;;;;;;4939355;29;20472;-85
2022/12/29 11:36:48;;;;;;;20.75;17.10;;;13.40;99.90;;;;;;4925519;29;20038;-87
2022/12/29 11:39:35;;;;;;;21.63;16.00;;;13.50;99.90;;;;;;4935312;29;20055;-92
2022/12/29 11:42:02;;;;;;;30.08;18.08;;;13.40;99.90;;;;;;4937686;29;20039;-87
2022/12/29 11:44:28;;;;;;;24.30;16.98;;;13.50;99.90;;;;;;4920030;29;20043;-86
2022/12/29 11:46:54;;;;;;;21.98;15.07;;;13.50;99.90;;;;;;4920254;29;20038;-86
2022/12/29 11:49:22;;;;;;;28.30;17.17;;;13.60;99.90;;;;;;4954593;29;20362;-87
2022/12/29 11:51:50;;;;;;;19.92;15.75;;;13.60;99.90;;;;;;4939016;29;20042;-86
2022/12/29 11:54:26;;;;;;;23.00;16.95;;;13.60;99.90;;;;;;4948407;29;20034;-90
2022/12/29 11:56:52;;;;;;;17.23;15.38;;;13.50;99.90;;;;;;4939041;29;20139;-89
2022/12/29 11:59:44;;;;;;;17.63;14.23;;;13.40;99.90;;;;;;4936234;29;20482;-87
2022/12/29 12:02:41;;;;;;;24.02;14.43;;;13.30;99.90;;;;;;4923944;29;20031;-93
2022/12/29 12:05:30;;;;;;;21.27;15.00;;;13.30;99.90;;;;;;4938732;29;20028;-90
2022/12/29 12:08:02;;;;;;;24.92;16.08;;;13.20;99.90;;;;;;4950664;29;20038;-89
2022/12/29 12:10:31;;;;;;;18.73;13.75;;;13.10;99.90;;;;;;4930718;29;20038;-85
2022/12/29 12:13:21;;;;;;;23.80;15.20;;;13.20;99.90;;;;;;4935693;29;20023;-93
2022/12/29 12:16:06;;;;;;;23.95;14.98;;;13.20;99.90;;;;;;4935532;29;20369;-85
2022/12/29 12:18:51;;;;;;;18.58;13.63;;;13.20;99.90;;;;;;4912729;29;20027;-85
2022/12/29 12:21:38;;;;;;;24.90;17.58;;;13.20;99.90;;;;;;4918700;29;20031;-95
2022/12/29 12:24:29;;;;;;;17.20;15.50;;;13.30;99.90;;;;;;4921563;29;20090;-90
2022/12/29 12:27:02;;;;;;;19.05;12.90;;;13.40;99.90;;;;;;4947405;29;20043;-91
2022/12/29 12:29:43;;;;;;;18.88;14.02;;;13.70;99.90;;;;;;4922652;29;20028;-90
2022/12/29 12:32:42;;;;;;;15.07;13.68;;;13.80;99.90;;;;;;4938421;28;20044;-90
2022/12/29 12:35:16;;;;;;;24.95;15.15;;;14.00;99.90;;;;;;4919444;29;20031;-90
2022/12/29 12:37:58;;;;;;;16.67;14.07;;;14.20;99.90;;;;;;4922300;29;20046;-90
2022/12/29 12:40:46;;;;;;;17.35;13.77;;;14.20;99.90;;;;;;4939195;29;20048;-91
2022/12/29 12:43:18;;;;;;;24.65;22.13;;;14.00;99.90;;;;;;4939369;29;20046;-89
2022/12/29 12:46:07;;;;;;;15.98;14.68;;;14.00;99.90;;;;;;4936939;28;20042;-90
2022/12/29 12:48:41;;;;;;;16.92;14.77;;;14.00;99.90;;;;;;4858838;29;20049;-90
2022/12/29 12:51:14;;;;;;;18.45;15.23;;;14.00;99.90;;;;;;4843713;29;20053;-91
2022/12/29 12:54:02;;;;;;;16.17;14.55;;;14.10;99.90;;;;;;4843612;29;20048;-91
2022/12/29 12:56:53;;;;;;;16.48;14.82;;;14.10;99.90;;;;;;4845760;29;20034;-90
2022/12/29 12:59:42;;;;;;;28.55;18.08;;;14.10;99.90;;;;;;4858161;29;20061;-91
2022/12/29 13:02:14;;;;;;;19.88;16.05;;;14.10;99.90;;;;;;4844226;29;20049;-90
2022/12/29 13:04:48;;;;;;;27.17;20.48;;;14.20;99.90;;;;;;4858360;29;20033;-90
2022/12/29 13:07:43;;;;;;;18.08;15.88;;;14.10;99.90;;;;;;4842882;29;20543;-91
2022/12/29 13:10:33;;;;;;;20.52;18.15;;;14.10;99.90;;;;;;4846579;29;20056;-90
2022/12/29 13:13:17;;;;;;;19.67;15.13;;;14.10;99.90;;;;;;4842534;29;20049;-92
2022/12/29 13:16:04;;;;;;;21.15;15.68;;;14.20;99.90;;;;;;4842587;29;20526;-90
2022/12/29 13:18:53;;;;;;;19.05;16.83;;;14.10;99.90;;;;;;4842395;29;20042;-91